sensor_id;sensor_type;location;lat;lon;timestamp;P1;durP1;ratioP1;P2;durP2;ratioP2
21820;SDS011;11073;48.586;12.066;2023-02-28T00:02:25;5.37;;;2.80;;
21820;SDS011;11073;48.586;12.066;2023-02-28T00:05:15;5.27;;;2.90;;
21820;SDS011;11073;48.586;12.066;2023-02-28T00:08:07;5.37;;;3.20;;
21820;SDS011;11073;48.586;12.066;2023-02-28T00:11:00;4.87;;;3.20;;
21820;SDS011;11073;48.586;12.066;2023-02-28T00:13:49;4.33;;;2.70;;
21820;SDS011;11073;48.586;12.066;2023-02-28T00:16:39;6.57;;;3.03;;
21820;SDS011;11073;48.586;12.066;2023-02-28T00:19:29;6.03;;;2.83;;
21820;SDS011;11073;48.586;12.066;2023-02-28T00:22:19;6.83;;;3.67;;
21820;SDS011;11073;48.586;12.066;2023-02-28T00:25:10;6.13;;;3.20;;
21820;SDS011;11073;48.586;12.066;2023-02-28T00:28:00;4.53;;;3.00;;
21820;SDS011;11073;48.586;12.066;2023-02-28T00:30:50;6.23;;;3.20;;
21820;SDS011;11073;48.586;12.066;2023-02-28T00:33:39;5.03;;;3.40;;
21820;SDS011;11073;48.586;12.066;2023-02-28T00:36:29;4.93;;;3.03;;
21820;SDS011;11073;48.586;12.066;2023-02-28T00:39:18;4.77;;;3.33;;
21820;SDS011;11073;48.586;12.066;2023-02-28T00:42:08;6.57;;;3.60;;
21820;SDS011;11073;48.586;12.066;2023-02-28T00:44:57;5.10;;;3.17;;
21820;SDS011;11073;48.586;12.066;2023-02-28T00:47:47;5.70;;;3.43;;
21820;SDS011;11073;48.586;12.066;2023-02-28T00:50:38;4.53;;;3.00;;
21820;SDS011;11073;48.586;12.066;2023-02-28T00:53:29;5.63;;;3.67;;
21820;SDS011;11073;48.586;12.066;2023-02-28T00:56:20;6.23;;;3.87;;
21820;SDS011;11073;48.586;12.066;2023-02-28T00:59:09;7.47;;;4.20;;
21820;SDS011;11073;48.586;12.066;2023-02-28T01:01:58;5.20;;;3.33;;
21820;SDS011;11073;48.586;12.066;2023-02-28T01:04:48;6.43;;;3.67;;
21820;SDS011;11073;48.586;12.066;2023-02-28T01:07:37;5.30;;;3.93;;
21820;SDS011;11073;48.586;12.066;2023-02-28T01:10:28;6.07;;;4.20;;
21820;SDS011;11073;48.586;12.066;2023-02-28T01:13:19;5.70;;;3.97;;
21820;SDS011;11073;48.586;12.066;2023-02-28T01:16:08;5.97;;;3.90;;
21820;SDS011;11073;48.586;12.066;2023-02-28T01:18:57;5.70;;;3.90;;
21820;SDS011;11073;48.586;12.066;2023-02-28T01:21:46;6.67;;;3.90;;
21820;SDS011;11073;48.586;12.066;2023-02-28T01:24:35;7.73;;;4.40;;
21820;SDS011;11073;48.586;12.066;2023-02-28T01:27:27;6.97;;;3.97;;
21820;SDS011;11073;48.586;12.066;2023-02-28T01:30:18;7.77;;;4.30;;
21820;SDS011;11073;48.586;12.066;2023-02-28T01:33:07;6.63;;;4.37;;
21820;SDS011;11073;48.586;12.066;2023-02-28T01:35:59;7.20;;;4.40;;
21820;SDS011;11073;48.586;12.066;2023-02-28T01:38:49;6.67;;;4.50;;
21820;SDS011;11073;48.586;12.066;2023-02-28T01:41:40;5.20;;;3.93;;
21820;SDS011;11073;48.586;12.066;2023-02-28T01:47:51;7.53;;;4.47;;
21820;SDS011;11073;48.586;12.066;2023-02-28T01:50:44;8.10;;;4.73;;
21820;SDS011;11073;48.586;12.066;2023-02-28T01:53:37;7.17;;;4.73;;
21820;SDS011;11073;48.586;12.066;2023-02-28T01:56:32;8.53;;;4.93;;
21820;SDS011;11073;48.586;12.066;2023-02-28T01:59:25;6.70;;;4.97;;
21820;SDS011;11073;48.586;12.066;2023-02-28T02:02:20;6.67;;;4.83;;
21820;SDS011;11073;48.586;12.066;2023-02-28T02:05:12;10.43;;;4.93;;
21820;SDS011;11073;48.586;12.066;2023-02-28T02:08:05;7.57;;;4.77;;
21820;SDS011;11073;48.586;12.066;2023-02-28T02:10:57;7.10;;;4.90;;
21820;SDS011;11073;48.586;12.066;2023-02-28T02:13:53;5.93;;;4.17;;
21820;SDS011;11073;48.586;12.066;2023-02-28T02:16:56;8.10;;;5.37;;
21820;SDS011;11073;48.586;12.066;2023-02-28T02:23:47;7.70;;;4.53;;
21820;SDS011;11073;48.586;12.066;2023-02-28T02:27:03;7.67;;;5.33;;
21820;SDS011;11073;48.586;12.066;2023-02-28T02:30:17;7.37;;;4.50;;
21820;SDS011;11073;48.586;12.066;2023-02-28T02:33:26;7.30;;;5.10;;
21820;SDS011;11073;48.586;12.066;2023-02-28T02:36:36;6.90;;;4.90;;
21820;SDS011;11073;48.586;12.066;2023-02-28T02:39:29;7.20;;;4.93;;
21820;SDS011;11073;48.586;12.066;2023-02-28T02:42:27;7.63;;;4.80;;
21820;SDS011;11073;48.586;12.066;2023-02-28T02:45:22;7.13;;;4.83;;
21820;SDS011;11073;48.586;12.066;2023-02-28T02:48:16;7.87;;;5.57;;
21820;SDS011;11073;48.586;12.066;2023-02-28T02:51:10;7.87;;;5.00;;
21820;SDS011;11073;48.586;12.066;2023-02-28T02:54:05;7.90;;;5.40;;
21820;SDS011;11073;48.586;12.066;2023-02-28T02:57:00;7.80;;;4.97;;
21820;SDS011;11073;48.586;12.066;2023-02-28T02:59:53;7.77;;;5.50;;
21820;SDS011;11073;48.586;12.066;2023-02-28T03:02:45;7.80;;;5.33;;
21820;SDS011;11073;48.586;12.066;2023-02-28T03:05:39;8.10;;;5.47;;
21820;SDS011;11073;48.586;12.066;2023-02-28T03:08:35;10.27;;;6.03;;
21820;SDS011;11073;48.586;12.066;2023-02-28T03:11:27;8.63;;;5.43;;
21820;SDS011;11073;48.586;12.066;2023-02-28T03:14:22;7.07;;;5.37;;
21820;SDS011;11073;48.586;12.066;2023-02-28T03:17:26;8.10;;;5.67;;
21820;SDS011;11073;48.586;12.066;2023-02-28T03:20:27;8.50;;;5.70;;
21820;SDS011;11073;48.586;12.066;2023-02-28T03:23:30;9.13;;;5.33;;
21820;SDS011;11073;48.586;12.066;2023-02-28T03:26:29;8.57;;;5.40;;
21820;SDS011;11073;48.586;12.066;2023-02-28T03:29:19;9.50;;;6.20;;
21820;SDS011;11073;48.586;12.066;2023-02-28T03:32:14;8.07;;;5.50;;
21820;SDS011;11073;48.586;12.066;2023-02-28T03:35:09;8.93;;;6.10;;
21820;SDS011;11073;48.586;12.066;2023-02-28T03:38:08;9.20;;;6.03;;
21820;SDS011;11073;48.586;12.066;2023-02-28T03:41:02;8.60;;;5.70;;
21820;SDS011;11073;48.586;12.066;2023-02-28T03:43:56;8.57;;;5.70;;
21820;SDS011;11073;48.586;12.066;2023-02-28T03:46:58;9.10;;;6.07;;
21820;SDS011;11073;48.586;12.066;2023-02-28T03:49:53;7.60;;;6.00;;
21820;SDS011;11073;48.586;12.066;2023-02-28T03:52:47;9.57;;;5.63;;
21820;SDS011;11073;48.586;12.066;2023-02-28T03:55:40;8.90;;;5.53;;
21820;SDS011;11073;48.586;12.066;2023-02-28T03:58:34;6.70;;;5.20;;
21820;SDS011;11073;48.586;12.066;2023-02-28T04:01:30;7.97;;;6.17;;
21820;SDS011;11073;48.586;12.066;2023-02-28T04:04:24;8.67;;;5.63;;
21820;SDS011;11073;48.586;12.066;2023-02-28T04:07:14;9.20;;;6.43;;
21820;SDS011;11073;48.586;12.066;2023-02-28T04:10:03;8.83;;;6.00;;
21820;SDS011;11073;48.586;12.066;2023-02-28T04:12:53;7.77;;;6.00;;
21820;SDS011;11073;48.586;12.066;2023-02-28T04:15:42;8.57;;;6.17;;
21820;SDS011;11073;48.586;12.066;2023-02-28T04:18:33;11.50;;;5.67;;
21820;SDS011;11073;48.586;12.066;2023-02-28T04:21:21;9.37;;;6.30;;
21820;SDS011;11073;48.586;12.066;2023-02-28T04:24:14;10.07;;;6.37;;
21820;SDS011;11073;48.586;12.066;2023-02-28T04:27:04;8.03;;;5.87;;
21820;SDS011;11073;48.586;12.066;2023-02-28T04:29:53;8.17;;;5.53;;
21820;SDS011;11073;48.586;12.066;2023-02-28T04:32:42;9.90;;;5.87;;
21820;SDS011;11073;48.586;12.066;2023-02-28T04:35:33;8.43;;;5.90;;
21820;SDS011;11073;48.586;12.066;2023-02-28T04:38:22;8.60;;;6.17;;
21820;SDS011;11073;48.586;12.066;2023-02-28T04:41:11;8.33;;;5.80;;
21820;SDS011;11073;48.586;12.066;2023-02-28T04:44:00;8.80;;;5.90;;
21820;SDS011;11073;48.586;12.066;2023-02-28T04:46:49;7.97;;;6.37;;
21820;SDS011;11073;48.586;12.066;2023-02-28T04:49:38;9.07;;;6.30;;
21820;SDS011;11073;48.586;12.066;2023-02-28T04:52:29;8.83;;;6.63;;
21820;SDS011;11073;48.586;12.066;2023-02-28T04:55:19;9.73;;;6.53;;
21820;SDS011;11073;48.586;12.066;2023-02-28T04:58:07;8.03;;;5.47;;
21820;SDS011;11073;48.586;12.066;2023-02-28T05:01:01;10.03;;;5.97;;
21820;SDS011;11073;48.586;12.066;2023-02-28T05:03:52;13.47;;;7.40;;
21820;SDS011;11073;48.586;12.066;2023-02-28T05:06:42;10.07;;;7.17;;
21820;SDS011;11073;48.586;12.066;2023-02-28T05:09:33;9.47;;;6.83;;
21820;SDS011;11073;48.586;12.066;2023-02-28T05:12:22;11.67;;;7.40;;
21820;SDS011;11073;48.586;12.066;2023-02-28T05:15:11;8.70;;;6.40;;
21820;SDS011;11073;48.586;12.066;2023-02-28T05:18:01;9.97;;;6.53;;
21820;SDS011;11073;48.586;12.066;2023-02-28T05:20:50;12.77;;;6.60;;
21820;SDS011;11073;48.586;12.066;2023-02-28T05:23:39;10.10;;;6.70;;
21820;SDS011;11073;48.586;12.066;2023-02-28T05:26:29;9.37;;;6.57;;
21820;SDS011;11073;48.586;12.066;2023-02-28T05:29:19;10.43;;;6.60;;
21820;SDS011;11073;48.586;12.066;2023-02-28T05:32:09;11.03;;;6.93;;
21820;SDS011;11073;48.586;12.066;2023-02-28T05:34:58;10.20;;;6.43;;
21820;SDS011;11073;48.586;12.066;2023-02-28T05:37:47;9.30;;;6.40;;
21820;SDS011;11073;48.586;12.066;2023-02-28T05:40:37;9.90;;;6.47;;
21820;SDS011;11073;48.586;12.066;2023-02-28T05:43:28;11.50;;;6.93;;
21820;SDS011;11073;48.586;12.066;2023-02-28T05:46:17;9.97;;;6.40;;
21820;SDS011;11073;48.586;12.066;2023-02-28T05:49:06;8.77;;;6.20;;
21820;SDS011;11073;48.586;12.066;2023-02-28T05:51:55;12.77;;;7.40;;
21820;SDS011;11073;48.586;12.066;2023-02-28T05:54:45;9.57;;;6.47;;
21820;SDS011;11073;48.586;12.066;2023-02-28T05:57:35;11.20;;;6.73;;
21820;SDS011;11073;48.586;12.066;2023-02-28T06:00:25;10.07;;;6.77;;
21820;SDS011;11073;48.586;12.066;2023-02-28T06:03:15;9.87;;;6.60;;
21820;SDS011;11073;48.586;12.066;2023-02-28T06:06:05;13.83;;;6.53;;
21820;SDS011;11073;48.586;12.066;2023-02-28T06:08:54;9.53;;;6.80;;
21820;SDS011;11073;48.586;12.066;2023-02-28T06:11:44;8.70;;;6.17;;
21820;SDS011;11073;48.586;12.066;2023-02-28T06:14:33;10.97;;;6.97;;
21820;SDS011;11073;48.586;12.066;2023-02-28T06:17:24;12.27;;;7.10;;
21820;SDS011;11073;48.586;12.066;2023-02-28T06:20:15;11.77;;;6.47;;
21820;SDS011;11073;48.586;12.066;2023-02-28T06:23:05;8.30;;;6.13;;
21820;SDS011;11073;48.586;12.066;2023-02-28T06:25:54;10.30;;;6.67;;
21820;SDS011;11073;48.586;12.066;2023-02-28T06:28:45;9.80;;;7.13;;
21820;SDS011;11073;48.586;12.066;2023-02-28T06:31:34;10.27;;;7.17;;
21820;SDS011;11073;48.586;12.066;2023-02-28T06:34:24;9.60;;;6.23;;
21820;SDS011;11073;48.586;12.066;2023-02-28T06:37:13;10.47;;;7.23;;
21820;SDS011;11073;48.586;12.066;2023-02-28T06:40:02;11.33;;;6.87;;
21820;SDS011;11073;48.586;12.066;2023-02-28T06:42:51;9.57;;;6.90;;
21820;SDS011;11073;48.586;12.066;2023-02-28T06:45:41;11.07;;;6.67;;
21820;SDS011;11073;48.586;12.066;2023-02-28T06:48:31;10.70;;;7.00;;
21820;SDS011;11073;48.586;12.066;2023-02-28T06:51:23;12.23;;;6.90;;
21820;SDS011;11073;48.586;12.066;2023-02-28T06:54:12;9.13;;;6.27;;
21820;SDS011;11073;48.586;12.066;2023-02-28T06:57:01;9.00;;;5.90;;
21820;SDS011;11073;48.586;12.066;2023-02-28T06:59:50;10.20;;;6.50;;
21820;SDS011;11073;48.586;12.066;2023-02-28T07:02:40;10.50;;;7.27;;
21820;SDS011;11073;48.586;12.066;2023-02-28T07:05:29;10.73;;;7.50;;
21820;SDS011;11073;48.586;12.066;2023-02-28T07:08:19;11.57;;;7.93;;
21820;SDS011;11073;48.586;12.066;2023-02-28T07:11:08;10.93;;;7.00;;
21820;SDS011;11073;48.586;12.066;2023-02-28T07:13:57;11.10;;;7.20;;
21820;SDS011;11073;48.586;12.066;2023-02-28T07:16:46;10.80;;;7.23;;
21820;SDS011;11073;48.586;12.066;2023-02-28T07:19:35;10.60;;;7.47;;
21820;SDS011;11073;48.586;12.066;2023-02-28T07:22:24;10.13;;;6.80;;
21820;SDS011;11073;48.586;12.066;2023-02-28T07:25:14;10.00;;;6.83;;
21820;SDS011;11073;48.586;12.066;2023-02-28T07:28:03;10.80;;;7.13;;
21820;SDS011;11073;48.586;12.066;2023-02-28T07:30:52;12.67;;;7.53;;
21820;SDS011;11073;48.586;12.066;2023-02-28T07:33:41;11.13;;;7.43;;
21820;SDS011;11073;48.586;12.066;2023-02-28T07:36:30;10.47;;;6.77;;
21820;SDS011;11073;48.586;12.066;2023-02-28T07:39:20;10.43;;;6.43;;
21820;SDS011;11073;48.586;12.066;2023-02-28T07:42:10;10.53;;;7.27;;
21820;SDS011;11073;48.586;12.066;2023-02-28T07:45:00;10.87;;;6.87;;
21820;SDS011;11073;48.586;12.066;2023-02-28T07:47:49;9.07;;;6.33;;
21820;SDS011;11073;48.586;12.066;2023-02-28T07:50:38;11.33;;;6.43;;
21820;SDS011;11073;48.586;12.066;2023-02-28T07:53:27;12.83;;;7.93;;
21820;SDS011;11073;48.586;12.066;2023-02-28T07:56:16;11.33;;;7.00;;
21820;SDS011;11073;48.586;12.066;2023-02-28T07:59:07;9.20;;;6.73;;
21820;SDS011;11073;48.586;12.066;2023-02-28T08:01:56;13.57;;;7.13;;
21820;SDS011;11073;48.586;12.066;2023-02-28T08:04:46;13.70;;;6.97;;
21820;SDS011;11073;48.586;12.066;2023-02-28T08:07:36;10.40;;;6.53;;
21820;SDS011;11073;48.586;12.066;2023-02-28T08:10:25;10.37;;;7.00;;
21820;SDS011;11073;48.586;12.066;2023-02-28T08:13:14;10.13;;;7.00;;
21820;SDS011;11073;48.586;12.066;2023-02-28T08:16:06;11.07;;;6.60;;
21820;SDS011;11073;48.586;12.066;2023-02-28T08:18:55;10.30;;;6.87;;
21820;SDS011;11073;48.586;12.066;2023-02-28T08:21:44;10.47;;;7.03;;
21820;SDS011;11073;48.586;12.066;2023-02-28T08:24:33;10.53;;;7.10;;
21820;SDS011;11073;48.586;12.066;2023-02-28T08:27:22;12.90;;;7.60;;
21820;SDS011;11073;48.586;12.066;2023-02-28T08:30:12;11.30;;;7.40;;
21820;SDS011;11073;48.586;12.066;2023-02-28T08:33:04;12.63;;;7.00;;
21820;SDS011;11073;48.586;12.066;2023-02-28T08:35:54;10.77;;;7.80;;
21820;SDS011;11073;48.586;12.066;2023-02-28T08:38:43;13.33;;;6.93;;
21820;SDS011;11073;48.586;12.066;2023-02-28T08:41:33;10.93;;;6.93;;
21820;SDS011;11073;48.586;12.066;2023-02-28T08:44:23;12.87;;;7.43;;
21820;SDS011;11073;48.586;12.066;2023-02-28T08:47:12;10.23;;;7.20;;
21820;SDS011;11073;48.586;12.066;2023-02-28T08:50:02;12.20;;;7.57;;
21820;SDS011;11073;48.586;12.066;2023-02-28T08:52:52;12.00;;;7.00;;
21820;SDS011;11073;48.586;12.066;2023-02-28T08:55:41;11.53;;;7.20;;
21820;SDS011;11073;48.586;12.066;2023-02-28T08:58:29;10.50;;;7.23;;
21820;SDS011;11073;48.586;12.066;2023-02-28T09:01:19;12.37;;;7.53;;
21820;SDS011;11073;48.586;12.066;2023-02-28T09:04:09;12.00;;;7.73;;
21820;SDS011;11073;48.586;12.066;2023-02-28T09:07:04;10.43;;;7.13;;
21820;SDS011;11073;48.586;12.066;2023-02-28T09:09:53;11.13;;;7.27;;
21820;SDS011;11073;48.586;12.066;2023-02-28T09:12:42;10.60;;;7.03;;
21820;SDS011;11073;48.586;12.066;2023-02-28T09:15:34;10.13;;;7.80;;
21820;SDS011;11073;48.586;12.066;2023-02-28T09:18:25;10.80;;;7.70;;
21820;SDS011;11073;48.586;12.066;2023-02-28T09:21:15;10.30;;;7.40;;
21820;SDS011;11073;48.586;12.066;2023-02-28T09:24:07;13.23;;;7.47;;
21820;SDS011;11073;48.586;12.066;2023-02-28T09:26:56;10.27;;;7.30;;
21820;SDS011;11073;48.586;12.066;2023-02-28T09:29:51;11.70;;;7.83;;
21820;SDS011;11073;48.586;12.066;2023-02-28T09:32:41;10.20;;;7.53;;
21820;SDS011;11073;48.586;12.066;2023-02-28T09:35:41;10.50;;;7.10;;
21820;SDS011;11073;48.586;12.066;2023-02-28T09:38:30;10.60;;;8.00;;
21820;SDS011;11073;48.586;12.066;2023-02-28T09:41:22;10.60;;;7.40;;
21820;SDS011;11073;48.586;12.066;2023-02-28T09:44:16;10.37;;;7.23;;
21820;SDS011;11073;48.586;12.066;2023-02-28T09:47:12;11.83;;;7.67;;
21820;SDS011;11073;48.586;12.066;2023-02-28T09:50:11;13.07;;;7.90;;
21820;SDS011;11073;48.586;12.066;2023-02-28T09:53:13;10.67;;;7.90;;
21820;SDS011;11073;48.586;12.066;2023-02-28T09:56:09;10.90;;;7.23;;
21820;SDS011;11073;48.586;12.066;2023-02-28T09:59:02;11.50;;;7.57;;
21820;SDS011;11073;48.586;12.066;2023-02-28T10:02:01;10.13;;;7.47;;
21820;SDS011;11073;48.586;12.066;2023-02-28T10:05:00;10.80;;;7.60;;
21820;SDS011;11073;48.586;12.066;2023-02-28T10:08:03;9.73;;;7.90;;
21820;SDS011;11073;48.586;12.066;2023-02-28T10:11:01;11.30;;;7.20;;
21820;SDS011;11073;48.586;12.066;2023-02-28T10:13:56;10.50;;;7.17;;
21820;SDS011;11073;48.586;12.066;2023-02-28T10:16:51;12.50;;;7.63;;
21820;SDS011;11073;48.586;12.066;2023-02-28T10:19:44;10.60;;;7.73;;
21820;SDS011;11073;48.586;12.066;2023-02-28T10:22:53;10.50;;;7.30;;
21820;SDS011;11073;48.586;12.066;2023-02-28T10:25:48;11.23;;;7.63;;
21820;SDS011;11073;48.586;12.066;2023-02-28T10:28:42;11.47;;;7.50;;
21820;SDS011;11073;48.586;12.066;2023-02-28T10:31:31;11.40;;;7.27;;
21820;SDS011;11073;48.586;12.066;2023-02-28T10:34:22;12.83;;;7.83;;
21820;SDS011;11073;48.586;12.066;2023-02-28T10:37:13;9.93;;;6.77;;
21820;SDS011;11073;48.586;12.066;2023-02-28T10:40:03;10.23;;;7.30;;
21820;SDS011;11073;48.586;12.066;2023-02-28T10:42:55;11.30;;;7.63;;
21820;SDS011;11073;48.586;12.066;2023-02-28T10:45:52;10.70;;;7.60;;
21820;SDS011;11073;48.586;12.066;2023-02-28T10:48:45;13.60;;;7.80;;
21820;SDS011;11073;48.586;12.066;2023-02-28T10:51:40;8.93;;;7.57;;
21820;SDS011;11073;48.586;12.066;2023-02-28T10:54:31;9.77;;;7.47;;
21820;SDS011;11073;48.586;12.066;2023-02-28T10:57:23;9.60;;;7.23;;
21820;SDS011;11073;48.586;12.066;2023-02-28T11:00:14;11.00;;;7.30;;
21820;SDS011;11073;48.586;12.066;2023-02-28T11:03:09;10.87;;;7.70;;
21820;SDS011;11073;48.586;12.066;2023-02-28T11:06:15;10.90;;;7.70;;
21820;SDS011;11073;48.586;12.066;2023-02-28T11:09:15;10.30;;;7.87;;
21820;SDS011;11073;48.586;12.066;2023-02-28T11:12:19;8.97;;;7.17;;
21820;SDS011;11073;48.586;12.066;2023-02-28T11:15:18;12.10;;;8.40;;
21820;SDS011;11073;48.586;12.066;2023-02-28T11:18:19;10.20;;;8.40;;
21820;SDS011;11073;48.586;12.066;2023-02-28T11:21:15;9.00;;;7.70;;
21820;SDS011;11073;48.586;12.066;2023-02-28T11:24:14;8.13;;;7.00;;
21820;SDS011;11073;48.586;12.066;2023-02-28T11:27:23;11.30;;;7.70;;
21820;SDS011;11073;48.586;12.066;2023-02-28T11:30:24;10.23;;;7.90;;
21820;SDS011;11073;48.586;12.066;2023-02-28T11:33:21;11.47;;;7.83;;
21820;SDS011;11073;48.586;12.066;2023-02-28T11:36:14;11.13;;;8.40;;
21820;SDS011;11073;48.586;12.066;2023-02-28T11:39:08;11.47;;;8.37;;
21820;SDS011;11073;48.586;12.066;2023-02-28T11:42:04;11.00;;;7.93;;
21820;SDS011;11073;48.586;12.066;2023-02-28T11:45:19;10.03;;;7.70;;
21820;SDS011;11073;48.586;12.066;2023-02-28T11:48:16;10.73;;;8.10;;
21820;SDS011;11073;48.586;12.066;2023-02-28T11:51:13;9.63;;;8.07;;
21820;SDS011;11073;48.586;12.066;2023-02-28T11:54:18;9.97;;;8.13;;
21820;SDS011;11073;48.586;12.066;2023-02-28T11:57:24;10.70;;;8.03;;
21820;SDS011;11073;48.586;12.066;2023-02-28T12:00:27;11.73;;;8.53;;
21820;SDS011;11073;48.586;12.066;2023-02-28T12:03:31;10.63;;;7.67;;
21820;SDS011;11073;48.586;12.066;2023-02-28T12:06:30;12.27;;;8.67;;
21820;SDS011;11073;48.586;12.066;2023-02-28T12:09:30;13.30;;;8.33;;
21820;SDS011;11073;48.586;12.066;2023-02-28T12:12:36;14.13;;;9.10;;
21820;SDS011;11073;48.586;12.066;2023-02-28T12:15:37;15.20;;;8.90;;
21820;SDS011;11073;48.586;12.066;2023-02-28T12:22:05;14.93;;;8.27;;
21820;SDS011;11073;48.586;12.066;2023-02-28T12:28:30;8.93;;;7.80;;
21820;SDS011;11073;48.586;12.066;2023-02-28T12:31:23;10.57;;;8.00;;
21820;SDS011;11073;48.586;12.066;2023-02-28T12:34:16;10.55;;;8.02;;
21820;SDS011;11073;48.586;12.066;2023-02-28T12:37:09;10.25;;;8.00;;
21820;SDS011;11073;48.586;12.066;2023-02-28T12:40:05;9.15;;;8.15;;
21820;SDS011;11073;48.586;12.066;2023-02-28T12:42:59;11.43;;;8.48;;
21820;SDS011;11073;48.586;12.066;2023-02-28T12:45:55;12.40;;;8.90;;
21820;SDS011;11073;48.586;12.066;2023-02-28T12:48:48;10.32;;;8.60;;
21820;SDS011;11073;48.586;12.066;2023-02-28T12:51:40;9.18;;;7.82;;
21820;SDS011;11073;48.586;12.066;2023-02-28T12:54:30;12.02;;;8.55;;
21820;SDS011;11073;48.586;12.066;2023-02-28T12:57:25;10.18;;;8.48;;
21820;SDS011;11073;48.586;12.066;2023-02-28T13:00:21;9.52;;;8.15;;
21820;SDS011;11073;48.586;12.066;2023-02-28T13:03:23;9.88;;;8.00;;
21820;SDS011;11073;48.586;12.066;2023-02-28T13:06:28;11.82;;;8.57;;
21820;SDS011;11073;48.586;12.066;2023-02-28T13:09:30;14.63;;;8.60;;
21820;SDS011;11073;48.586;12.066;2023-02-28T13:12:19;11.38;;;8.77;;
21820;SDS011;11073;48.586;12.066;2023-02-28T13:15:16;12.20;;;8.13;;
21820;SDS011;11073;48.586;12.066;2023-02-28T13:18:25;11.20;;;8.88;;
21820;SDS011;11073;48.586;12.066;2023-02-28T13:21:22;10.60;;;8.57;;
21820;SDS011;11073;48.586;12.066;2023-02-28T13:24:27;10.63;;;9.18;;
21820;SDS011;11073;48.586;12.066;2023-02-28T13:27:35;8.88;;;7.95;;
21820;SDS011;11073;48.586;12.066;2023-02-28T13:34:06;11.20;;;8.75;;
21820;SDS011;11073;48.586;12.066;2023-02-28T13:40:29;11.20;;;7.80;;
21820;SDS011;11073;48.586;12.066;2023-02-28T13:43:25;10.15;;;8.20;;
21820;SDS011;11073;48.586;12.066;2023-02-28T13:50:19;9.02;;;8.02;;
21820;SDS011;11073;48.586;12.066;2023-02-28T13:56:49;9.45;;;8.23;;
21820;SDS011;11073;48.586;12.066;2023-02-28T13:59:46;12.30;;;8.77;;
21820;SDS011;11073;48.586;12.066;2023-02-28T14:02:48;10.27;;;7.70;;
21820;SDS011;11073;48.586;12.066;2023-02-28T14:06:17;9.25;;;7.55;;
21820;SDS011;11073;48.586;12.066;2023-02-28T14:09:16;12.70;;;8.73;;
21820;SDS011;11073;48.586;12.066;2023-02-28T14:18:48;9.88;;;7.97;;
21820;SDS011;11073;48.586;12.066;2023-02-28T14:21:43;10.45;;;8.07;;
21820;SDS011;11073;48.586;12.066;2023-02-28T14:24:54;9.63;;;8.55;;
21820;SDS011;11073;48.586;12.066;2023-02-28T14:27:57;10.95;;;9.30;;
21820;SDS011;11073;48.586;12.066;2023-02-28T14:30:58;16.10;;;10.27;;
21820;SDS011;11073;48.586;12.066;2023-02-28T14:34:12;10.32;;;8.27;;
21820;SDS011;11073;48.586;12.066;2023-02-28T14:37:15;11.18;;;8.80;;
21820;SDS011;11073;48.586;12.066;2023-02-28T14:40:11;9.50;;;8.50;;
21820;SDS011;11073;48.586;12.066;2023-02-28T14:43:04;9.13;;;8.20;;
21820;SDS011;11073;48.586;12.066;2023-02-28T14:45:55;11.57;;;9.02;;
21820;SDS011;11073;48.586;12.066;2023-02-28T14:48:47;10.80;;;9.02;;
21820;SDS011;11073;48.586;12.066;2023-02-28T14:51:37;10.57;;;9.05;;
21820;SDS011;11073;48.586;12.066;2023-02-28T14:54:26;11.02;;;9.15;;
21820;SDS011;11073;48.586;12.066;2023-02-28T14:57:23;9.82;;;7.93;;
21820;SDS011;11073;48.586;12.066;2023-02-28T15:00:15;11.70;;;9.18;;
21820;SDS011;11073;48.586;12.066;2023-02-28T15:03:17;13.10;;;9.55;;
21820;SDS011;11073;48.586;12.066;2023-02-28T15:06:13;10.60;;;9.32;;
21820;SDS011;11073;48.586;12.066;2023-02-28T15:09:14;11.90;;;10.02;;
21820;SDS011;11073;48.586;12.066;2023-02-28T15:12:06;11.60;;;9.88;;
21820;SDS011;11073;48.586;12.066;2023-02-28T15:14:55;11.60;;;8.82;;
21820;SDS011;11073;48.586;12.066;2023-02-28T15:17:45;11.65;;;8.30;;
21820;SDS011;11073;48.586;12.066;2023-02-28T15:20:36;13.50;;;9.82;;
21820;SDS011;11073;48.586;12.066;2023-02-28T15:23:29;11.23;;;7.95;;
21820;SDS011;11073;48.586;12.066;2023-02-28T15:26:19;10.73;;;8.52;;
21820;SDS011;11073;48.586;12.066;2023-02-28T15:29:11;11.52;;;8.90;;
21820;SDS011;11073;48.586;12.066;2023-02-28T15:32:04;12.65;;;10.00;;
21820;SDS011;11073;48.586;12.066;2023-02-28T15:34:55;13.05;;;9.82;;
21820;SDS011;11073;48.586;12.066;2023-02-28T15:37:46;11.05;;;9.05;;
21820;SDS011;11073;48.586;12.066;2023-02-28T15:40:38;13.15;;;9.73;;
21820;SDS011;11073;48.586;12.066;2023-02-28T15:43:30;13.90;;;10.10;;
21820;SDS011;11073;48.586;12.066;2023-02-28T15:46:20;13.57;;;9.63;;
21820;SDS011;11073;48.586;12.066;2023-02-28T15:49:12;12.80;;;10.52;;
21820;SDS011;11073;48.586;12.066;2023-02-28T15:52:09;14.52;;;9.93;;
21820;SDS011;11073;48.586;12.066;2023-02-28T15:55:08;12.25;;;10.68;;
21820;SDS011;11073;48.586;12.066;2023-02-28T15:58:01;12.60;;;9.40;;
21820;SDS011;11073;48.586;12.066;2023-02-28T16:01:01;11.43;;;9.77;;
21820;SDS011;11073;48.586;12.066;2023-02-28T16:03:55;15.30;;;10.77;;
21820;SDS011;11073;48.586;12.066;2023-02-28T16:06:46;12.75;;;10.55;;
21820;SDS011;11073;48.586;12.066;2023-02-28T16:09:37;14.88;;;11.73;;
21820;SDS011;11073;48.586;12.066;2023-02-28T16:12:26;17.75;;;13.02;;
21820;SDS011;11073;48.586;12.066;2023-02-28T16:15:19;16.47;;;11.93;;
21820;SDS011;11073;48.586;12.066;2023-02-28T16:18:11;11.43;;;10.13;;
21820;SDS011;11073;48.586;12.066;2023-02-28T16:21:01;16.03;;;10.67;;
21820;SDS011;11073;48.586;12.066;2023-02-28T16:23:50;13.07;;;10.37;;
21820;SDS011;11073;48.586;12.066;2023-02-28T16:26:38;15.43;;;11.20;;
21820;SDS011;11073;48.586;12.066;2023-02-28T16:29:30;14.10;;;10.93;;
21820;SDS011;11073;48.586;12.066;2023-02-28T16:32:24;15.53;;;10.83;;
21820;SDS011;11073;48.586;12.066;2023-02-28T16:35:13;13.97;;;11.23;;
21820;SDS011;11073;48.586;12.066;2023-02-28T16:38:02;15.23;;;10.83;;
21820;SDS011;11073;48.586;12.066;2023-02-28T16:40:53;15.50;;;10.97;;
21820;SDS011;11073;48.586;12.066;2023-02-28T16:43:47;14.40;;;11.00;;
21820;SDS011;11073;48.586;12.066;2023-02-28T16:46:37;16.00;;;11.57;;
21820;SDS011;11073;48.586;12.066;2023-02-28T16:49:28;14.57;;;10.80;;
21820;SDS011;11073;48.586;12.066;2023-02-28T16:52:18;16.87;;;11.57;;
21820;SDS011;11073;48.586;12.066;2023-02-28T16:55:07;15.30;;;11.30;;
21820;SDS011;11073;48.586;12.066;2023-02-28T16:57:57;15.53;;;12.13;;
21820;SDS011;11073;48.586;12.066;2023-02-28T17:00:47;17.00;;;12.00;;
21820;SDS011;11073;48.586;12.066;2023-02-28T17:03:37;16.40;;;10.80;;
21820;SDS011;11073;48.586;12.066;2023-02-28T17:06:29;16.87;;;11.27;;
21820;SDS011;11073;48.586;12.066;2023-02-28T17:09:20;14.97;;;11.50;;
21820;SDS011;11073;48.586;12.066;2023-02-28T17:12:17;18.83;;;12.13;;
21820;SDS011;11073;48.586;12.066;2023-02-28T17:15:06;15.67;;;11.40;;
21820;SDS011;11073;48.586;12.066;2023-02-28T17:17:57;18.13;;;12.47;;
21820;SDS011;11073;48.586;12.066;2023-02-28T17:20:46;16.67;;;11.47;;
21820;SDS011;11073;48.586;12.066;2023-02-28T17:23:36;17.07;;;12.03;;
21820;SDS011;11073;48.586;12.066;2023-02-28T17:26:25;16.97;;;12.17;;
21820;SDS011;11073;48.586;12.066;2023-02-28T17:29:16;16.20;;;11.60;;
21820;SDS011;11073;48.586;12.066;2023-02-28T17:32:06;17.53;;;12.27;;
21820;SDS011;11073;48.586;12.066;2023-02-28T17:35:05;17.70;;;12.10;;